sensor_id;sensor_type;location;lat;lon;timestamp;pressure;altitude;pressure_sealevel;temperature;humidity
10796;BME280;5450;42.994;23.372;2023-03-25T00:01:44;96101.91;;;7.20;100.00
10796;BME280;5450;42.994;23.372;2023-03-25T00:04:11;96091.03;;;7.07;100.00
10796;BME280;5450;42.994;23.372;2023-03-25T00:06:41;96134.66;;;7.32;100.00
10796;BME280;5450;42.994;23.372;2023-03-25T00:09:09;96023.25;;;6.45;100.00
10796;BME280;5450;42.994;23.372;2023-03-25T00:11:36;95965.53;;;6.13;100.00
10796;BME280;5450;42.994;23.372;2023-03-25T00:14:04;95988.22;;;6.30;100.00
10796;BME280;5450;42.994;23.372;2023-03-25T00:16:32;96118.25;;;7.22;100.00
10796;BME280;5450;42.994;23.372;2023-03-25T00:18:59;96110.41;;;7.22;100.00
10796;BME280;5450;42.994;23.372;2023-03-25T00:21:28;96066.41;;;6.92;100.00
10796;BME280;5450;42.994;23.372;2023-03-25T00:24:00;96080.13;;;6.94;100.00
10796;BME280;5450;42.994;23.372;2023-03-25T00:26:27;96093.78;;;7.23;100.00
10796;BME280;5450;42.994;23.372;2023-03-25T00:28:56;96106.47;;;7.18;100.00
10796;BME280;5450;42.994;23.372;2023-03-25T00:31:24;96056.25;;;6.89;100.00
10796;BME280;5450;42.994;23.372;2023-03-25T00:34:17;96089.13;;;7.17;100.00
10796;BME280;5450;42.994;23.372;2023-03-25T00:36:44;96079.09;;;7.05;100.00
10796;BME280;5450;42.994;23.372;2023-03-25T00:39:13;96109.31;;;7.07;100.00
10796;BME280;5450;42.994;23.372;2023-03-25T00:41:40;95974.31;;;6.11;100.00
10796;BME280;5450;42.994;23.372;2023-03-25T00:47:25;96012.13;;;6.25;100.00
10796;BME280;5450;42.994;23.372;2023-03-25T00:49:52;96087.47;;;6.73;100.00
10796;BME280;5450;42.994;23.372;2023-03-25T00:52:20;95967.31;;;5.94;100.00
10796;BME280;5450;42.994;23.372;2023-03-25T00:54:50;96042.09;;;6.56;100.00
10796;BME280;5450;42.994;23.372;2023-03-25T00:57:18;95975.66;;;6.16;100.00
10796;BME280;5450;42.994;23.372;2023-03-25T00:59:47;96092.31;;;6.68;100.00
10796;BME280;5450;42.994;23.372;2023-03-25T01:02:16;96075.81;;;6.67;100.00
10796;BME280;5450;42.994;23.372;2023-03-25T01:04:43;96054.25;;;6.48;100.00
10796;BME280;5450;42.994;23.372;2023-03-25T01:07:11;96008.66;;;6.07;100.00
10796;BME280;5450;42.994;23.372;2023-03-25T01:09:40;96014.19;;;6.22;100.00
10796;BME280;5450;42.994;23.372;2023-03-25T01:12:12;96062.06;;;6.48;100.00
10796;BME280;5450;42.994;23.372;2023-03-25T01:14:40;95940.00;;;5.71;100.00
10796;BME280;5450;42.994;23.372;2023-03-25T01:17:07;96022.41;;;6.27;100.00
10796;BME280;5450;42.994;23.372;2023-03-25T01:19:34;96039.97;;;6.52;100.00
10796;BME280;5450;42.994;23.372;2023-03-25T01:22:03;96056.13;;;6.55;100.00
10796;BME280;5450;42.994;23.372;2023-03-25T01:24:30;95913.25;;;5.42;100.00
10796;BME280;5450;42.994;23.372;2023-03-25T01:26:58;96011.53;;;5.86;100.00
10796;BME280;5450;42.994;23.372;2023-03-25T01:29:26;96046.19;;;6.24;100.00
10796;BME280;5450;42.994;23.372;2023-03-25T01:31:53;96038.84;;;6.09;100.00
10796;BME280;5450;42.994;23.372;2023-03-25T01:34:46;96042.25;;;6.37;100.00
10796;BME280;5450;42.994;23.372;2023-03-25T01:37:14;96040.47;;;6.38;100.00
10796;BME280;5450;42.994;23.372;2023-03-25T01:39:43;96044.50;;;6.32;100.00
10796;BME280;5450;42.994;23.372;2023-03-25T01:42:12;96047.59;;;6.18;100.00
10796;BME280;5450;42.994;23.372;2023-03-25T01:45:22;96048.69;;;6.16;100.00
10796;BME280;5450;42.994;23.372;2023-03-25T01:47:55;95910.84;;;5.31;100.00
10796;BME280;5450;42.994;23.372;2023-03-25T01:50:25;96030.06;;;6.10;100.00
10796;BME280;5450;42.994;23.372;2023-03-25T01:52:55;95913.84;;;5.36;100.00
10796;BME280;5450;42.994;23.372;2023-03-25T01:55:23;96005.97;;;5.99;100.00
10796;BME280;5450;42.994;23.372;2023-03-25T01:57:55;95936.31;;;5.64;100.00
10796;BME280;5450;42.994;23.372;2023-03-25T02:00:26;96003.00;;;6.11;100.00
10796;BME280;5450;42.994;23.372;2023-03-25T02:02:56;95964.31;;;5.89;100.00
10796;BME280;5450;42.994;23.372;2023-03-25T02:05:29;96006.44;;;6.12;100.00
10796;BME280;5450;42.994;23.372;2023-03-25T02:08:00;95997.13;;;6.09;100.00
10796;BME280;5450;42.994;23.372;2023-03-25T02:10:29;96033.59;;;6.19;100.00
10796;BME280;5450;42.994;23.372;2023-03-25T02:12:59;96013.25;;;6.23;100.00
10796;BME280;5450;42.994;23.372;2023-03-25T02:15:38;96001.00;;;6.05;100.00
10796;BME280;5450;42.994;23.372;2023-03-25T02:18:23;96007.84;;;6.06;100.00
10796;BME280;5450;42.994;23.372;2023-03-25T02:21:29;95986.91;;;5.71;100.00
10796;BME280;5450;42.994;23.372;2023-03-25T02:24:24;95853.34;;;4.88;100.00
10796;BME280;5450;42.994;23.372;2023-03-25T02:27:14;95988.53;;;5.72;100.00
10796;BME280;5450;42.994;23.372;2023-03-25T02:30:15;96008.78;;;5.78;100.00
10796;BME280;5450;42.994;23.372;2023-03-25T02:33:15;95987.47;;;5.65;100.00
10796;BME280;5450;42.994;23.372;2023-03-25T02:36:13;96005.28;;;5.70;100.00
10796;BME280;5450;42.994;23.372;2023-03-25T02:38:48;96013.72;;;5.81;100.00
10796;BME280;5450;42.994;23.372;2023-03-25T02:41:21;96005.22;;;5.79;100.00
10796;BME280;5450;42.994;23.372;2023-03-25T02:43:53;96009.38;;;5.72;100.00
10796;BME280;5450;42.994;23.372;2023-03-25T02:46:22;96006.41;;;5.67;100.00
10796;BME280;5450;42.994;23.372;2023-03-25T02:48:54;96011.63;;;5.67;100.00
10796;BME280;5450;42.994;23.372;2023-03-25T02:51:26;95947.91;;;5.25;100.00
10796;BME280;5450;42.994;23.372;2023-03-25T02:54:01;96040.75;;;5.53;100.00
10796;BME280;5450;42.994;23.372;2023-03-25T02:56:31;96001.69;;;5.44;100.00
10796;BME280;5450;42.994;23.372;2023-03-25T02:59:03;96022.75;;;5.23;100.00
10796;BME280;5450;42.994;23.372;2023-03-25T03:01:32;95937.69;;;4.68;100.00
10796;BME280;5450;42.994;23.372;2023-03-25T03:04:01;96007.69;;;5.17;100.00
10796;BME280;5450;42.994;23.372;2023-03-25T03:06:28;95972.34;;;5.05;100.00
10796;BME280;5450;42.994;23.372;2023-03-25T03:09:07;95973.19;;;5.05;100.00
10796;BME280;5450;42.994;23.372;2023-03-25T03:11:48;95862.19;;;4.21;100.00
10796;BME280;5450;42.994;23.372;2023-03-25T03:14:42;95981.81;;;5.06;100.00
10796;BME280;5450;42.994;23.372;2023-03-25T03:17:18;95964.69;;;4.94;100.00
10796;BME280;5450;42.994;23.372;2023-03-25T03:19:49;96009.22;;;5.10;100.00
10796;BME280;5450;42.994;23.372;2023-03-25T03:22:26;95989.63;;;4.96;100.00
10796;BME280;5450;42.994;23.372;2023-03-25T03:25:08;95978.31;;;4.78;100.00
10796;BME280;5450;42.994;23.372;2023-03-25T03:27:45;96016.50;;;4.97;100.00
10796;BME280;5450;42.994;23.372;2023-03-25T03:30:18;96018.16;;;4.98;100.00
10796;BME280;5450;42.994;23.372;2023-03-25T03:32:49;96012.66;;;5.01;100.00
10796;BME280;5450;42.994;23.372;2023-03-25T03:35:21;95995.97;;;4.75;100.00
10796;BME280;5450;42.994;23.372;2023-03-25T03:37:56;96030.50;;;4.96;100.00
10796;BME280;5450;42.994;23.372;2023-03-25T03:40:27;96018.94;;;5.08;100.00
10796;BME280;5450;42.994;23.372;2023-03-25T03:43:00;96020.88;;;5.15;100.00
10796;BME280;5450;42.994;23.372;2023-03-25T03:45:34;96023.31;;;5.17;100.00
10796;BME280;5450;42.994;23.372;2023-03-25T03:48:08;96014.25;;;5.21;100.00
10796;BME280;5450;42.994;23.372;2023-03-25T03:50:40;96016.88;;;5.11;100.00
10796;BME280;5450;42.994;23.372;2023-03-25T03:53:13;95989.38;;;4.99;100.00
10796;BME280;5450;42.994;23.372;2023-03-25T03:55:46;96031.03;;;5.09;100.00
10796;BME280;5450;42.994;23.372;2023-03-25T03:58:22;95982.81;;;4.95;100.00
10796;BME280;5450;42.994;23.372;2023-03-25T04:00:57;95988.53;;;4.99;100.00
10796;BME280;5450;42.994;23.372;2023-03-25T04:03:30;95954.66;;;4.72;100.00
10796;BME280;5450;42.994;23.372;2023-03-25T04:06:02;95909.94;;;4.39;100.00
10796;BME280;5450;42.994;23.372;2023-03-25T04:08:36;96017.03;;;5.10;100.00
10796;BME280;5450;42.994;23.372;2023-03-25T04:11:19;96026.75;;;5.08;100.00
10796;BME280;5450;42.994;23.372;2023-03-25T04:13:51;96013.91;;;4.97;100.00
10796;BME280;5450;42.994;23.372;2023-03-25T04:16:20;96021.59;;;4.89;100.00
10796;BME280;5450;42.994;23.372;2023-03-25T04:18:49;95991.09;;;4.52;100.00
10796;BME280;5450;42.994;23.372;2023-03-25T04:21:18;95942.09;;;4.38;100.00
10796;BME280;5450;42.994;23.372;2023-03-25T04:23:45;96019.00;;;4.89;100.00
10796;BME280;5450;42.994;23.372;2023-03-25T04:26:13;95943.44;;;4.42;100.00
10796;BME280;5450;42.994;23.372;2023-03-25T04:28:40;96014.34;;;4.83;100.00
10796;BME280;5450;42.994;23.372;2023-03-25T04:31:11;96039.25;;;4.85;100.00
10796;BME280;5450;42.994;23.372;2023-03-25T04:33:39;95991.91;;;4.43;100.00
10796;BME280;5450;42.994;23.372;2023-03-25T04:36:07;95974.94;;;4.58;100.00
10796;BME280;5450;42.994;23.372;2023-03-25T04:38:35;95994.25;;;4.66;100.00
10796;BME280;5450;42.994;23.372;2023-03-25T04:41:03;96008.06;;;4.76;100.00
10796;BME280;5450;42.994;23.372;2023-03-25T04:43:35;96001.22;;;4.55;100.00
10796;BME280;5450;42.994;23.372;2023-03-25T04:46:04;95809.00;;;3.49;100.00
10796;BME280;5450;42.994;23.372;2023-03-25T04:48:34;96015.19;;;4.54;100.00
10796;BME280;5450;42.994;23.372;2023-03-25T04:51:06;95960.72;;;4.15;100.00
10796;BME280;5450;42.994;23.372;2023-03-25T04:53:34;96018.06;;;4.61;100.00
10796;BME280;5450;42.994;23.372;2023-03-25T04:56:02;95989.16;;;4.45;100.00
10796;BME280;5450;42.994;23.372;2023-03-25T04:58:29;96012.72;;;4.63;100.00
10796;BME280;5450;42.994;23.372;2023-03-25T05:00:58;96015.75;;;4.68;100.00
10796;BME280;5450;42.994;23.372;2023-03-25T05:03:33;96019.53;;;4.63;100.00
10796;BME280;5450;42.994;23.372;2023-03-25T05:06:06;95949.22;;;4.17;100.00
10796;BME280;5450;42.994;23.372;2023-03-25T05:08:33;95986.16;;;4.49;100.00
10796;BME280;5450;42.994;23.372;2023-03-25T05:11:00;96013.53;;;4.63;100.00
10796;BME280;5450;42.994;23.372;2023-03-25T05:13:27;96009.00;;;4.55;100.00
10796;BME280;5450;42.994;23.372;2023-03-25T05:15:54;96011.91;;;4.52;100.00
10796;BME280;5450;42.994;23.372;2023-03-25T05:18:23;95925.41;;;3.74;100.00
10796;BME280;5450;42.994;23.372;2023-03-25T05:20:50;96009.44;;;4.60;100.00
10796;BME280;5450;42.994;23.372;2023-03-25T05:23:21;95949.22;;;4.08;100.00
10796;BME280;5450;42.994;23.372;2023-03-25T05:25:50;96025.16;;;4.69;100.00
10796;BME280;5450;42.994;23.372;2023-03-25T05:28:18;95997.50;;;4.77;100.00
10796;BME280;5450;42.994;23.372;2023-03-25T05:30:52;95961.53;;;4.44;100.00
10796;BME280;5450;42.994;23.372;2023-03-25T05:33:22;96010.09;;;4.82;100.00
10796;BME280;5450;42.994;23.372;2023-03-25T05:35:49;95961.78;;;4.60;100.00
10796;BME280;5450;42.994;23.372;2023-03-25T05:38:16;95992.97;;;4.89;100.00
10796;BME280;5450;42.994;23.372;2023-03-25T05:40:45;95995.69;;;4.97;100.00
10796;BME280;5450;42.994;23.372;2023-03-25T05:43:14;95998.69;;;5.02;100.00
10796;BME280;5450;42.994;23.372;2023-03-25T05:45:41;96003.31;;;5.08;100.00
10796;BME280;5450;42.994;23.372;2023-03-25T05:48:09;95943.41;;;4.81;100.00
10796;BME280;5450;42.994;23.372;2023-03-25T05:50:38;95985.09;;;5.45;100.00
10796;BME280;5450;42.994;23.372;2023-03-25T05:53:09;95954.50;;;5.47;100.00
10796;BME280;5450;42.994;23.372;2023-03-25T05:55:37;95976.22;;;5.92;100.00
10796;BME280;5450;42.994;23.372;2023-03-25T05:58:04;95893.84;;;5.36;100.00
10796;BME280;5450;42.994;23.372;2023-03-25T06:00:31;95887.00;;;5.53;100.00
10796;BME280;5450;42.994;23.372;2023-03-25T06:02:58;95903.16;;;6.01;100.00
10796;BME280;5450;42.994;23.372;2023-03-25T06:05:25;95991.16;;;6.70;100.00
10796;BME280;5450;42.994;23.372;2023-03-25T06:07:57;95970.28;;;6.70;100.00
10796;BME280;5450;42.994;23.372;2023-03-25T06:10:24;95951.63;;;6.65;100.00
10796;BME280;5450;42.994;23.372;2023-03-25T06:12:51;95983.75;;;6.83;100.00
10796;BME280;5450;42.994;23.372;2023-03-25T06:15:18;95963.66;;;7.01;100.00
10796;BME280;5450;42.994;23.372;2023-03-25T06:17:53;95992.63;;;7.41;100.00
10796;BME280;5450;42.994;23.372;2023-03-25T06:20:26;95969.88;;;7.34;100.00
10796;BME280;5450;42.994;23.372;2023-03-25T06:22:52;95913.03;;;7.02;100.00
10796;BME280;5450;42.994;23.372;2023-03-25T06:25:24;95978.00;;;7.64;100.00
10796;BME280;5450;42.994;23.372;2023-03-25T06:27:52;96015.25;;;7.92;100.00
10796;BME280;5450;42.994;23.372;2023-03-25T06:30:20;95891.53;;;7.50;100.00
10796;BME280;5450;42.994;23.372;2023-03-25T06:32:47;95931.06;;;7.97;100.00
10796;BME280;5450;42.994;23.372;2023-03-25T06:35:18;95896.66;;;7.76;100.00
10796;BME280;5450;42.994;23.372;2023-03-25T06:37:50;95963.38;;;8.37;100.00
10796;BME280;5450;42.994;23.372;2023-03-25T06:40:17;95996.75;;;8.84;100.00
10796;BME280;5450;42.994;23.372;2023-03-25T06:42:48;96002.66;;;9.02;100.00
10796;BME280;5450;42.994;23.372;2023-03-25T06:45:15;95931.31;;;8.68;100.00
10796;BME280;5450;42.994;23.372;2023-03-25T06:47:47;96005.72;;;9.46;100.00
10796;BME280;5450;42.994;23.372;2023-03-25T06:50:14;95984.16;;;9.66;100.00
10796;BME280;5450;42.994;23.372;2023-03-25T06:52:41;95901.50;;;9.40;100.00
10796;BME280;5450;42.994;23.372;2023-03-25T06:55:09;95948.53;;;9.80;100.00
10796;BME280;5450;42.994;23.372;2023-03-25T06:57:36;96001.94;;;10.34;100.00
10796;BME280;5450;42.994;23.372;2023-03-25T07:00:06;95986.88;;;10.50;100.00
10796;BME280;5450;42.994;23.372;2023-03-25T07:02:34;95960.69;;;10.42;100.00
10796;BME280;5450;42.994;23.372;2023-03-25T07:05:01;95923.50;;;10.53;100.00
10796;BME280;5450;42.994;23.372;2023-03-25T07:07:33;95869.47;;;10.36;100.00
10796;BME280;5450;42.994;23.372;2023-03-25T07:10:00;95943.19;;;10.95;100.00
10796;BME280;5450;42.994;23.372;2023-03-25T07:12:27;95930.97;;;11.02;100.00
10796;BME280;5450;42.994;23.372;2023-03-25T07:14:55;95849.63;;;11.00;100.00
10796;BME280;5450;42.994;23.372;2023-03-25T07:17:25;95905.50;;;11.46;100.00
10796;BME280;5450;42.994;23.372;2023-03-25T07:19:52;95968.34;;;12.14;100.00
10796;BME280;5450;42.994;23.372;2023-03-25T07:22:21;95874.34;;;11.79;100.00
10796;BME280;5450;42.994;23.372;2023-03-25T07:24:50;95841.31;;;11.91;100.00
10796;BME280;5450;42.994;23.372;2023-03-25T07:27:17;95947.59;;;12.89;100.00
10796;BME280;5450;42.994;23.372;2023-03-25T07:29:44;95889.28;;;12.71;100.00
10796;BME280;5450;42.994;23.372;2023-03-25T07:32:12;95887.06;;;13.02;100.00
10796;BME280;5450;42.994;23.372;2023-03-25T07:34:40;95860.69;;;13.02;100.00
10796;BME280;5450;42.994;23.372;2023-03-25T07:37:09;95939.59;;;13.52;100.00
10796;BME280;5450;42.994;23.372;2023-03-25T07:39:36;95965.75;;;13.82;100.00
10796;BME280;5450;42.994;23.372;2023-03-25T07:42:04;95856.69;;;13.40;99.57
10796;BME280;5450;42.994;23.372;2023-03-25T07:44:31;95862.34;;;13.37;100.00
10796;BME280;5450;42.994;23.372;2023-03-25T07:46:59;95906.09;;;14.00;100.00
10796;BME280;5450;42.994;23.372;2023-03-25T07:49:26;95958.31;;;14.52;99.41
10796;BME280;5450;42.994;23.372;2023-03-25T07:51:55;95885.47;;;14.30;94.84
10796;BME280;5450;42.994;23.372;2023-03-25T07:54:23;95896.03;;;14.30;95.22
10796;BME280;5450;42.994;23.372;2023-03-25T07:56:50;95927.59;;;14.51;95.57
10796;BME280;5450;42.994;23.372;2023-03-25T07:59:19;95922.91;;;14.53;96.78
10796;BME280;5450;42.994;23.372;2023-03-25T08:01:47;95897.72;;;14.51;96.71
10796;BME280;5450;42.994;23.372;2023-03-25T08:04:14;95930.28;;;14.84;95.22
10796;BME280;5450;42.994;23.372;2023-03-25T08:06:41;95871.31;;;14.64;93.49
10796;BME280;5450;42.994;23.372;2023-03-25T08:09:43;95903.44;;;15.19;92.52
10796;BME280;5450;42.994;23.372;2023-03-25T08:12:13;95849.31;;;15.02;92.30
10796;BME280;5450;42.994;23.372;2023-03-25T08:14:46;95752.94;;;14.46;92.44
10796;BME280;5450;42.994;23.372;2023-03-25T08:17:14;95779.50;;;14.97;92.66
10796;BME280;5450;42.994;23.372;2023-03-25T08:19:44;95837.34;;;15.64;89.05
10796;BME280;5450;42.994;23.372;2023-03-25T08:22:12;95825.44;;;15.86;88.32
10796;BME280;5450;42.994;23.372;2023-03-25T08:24:45;95908.97;;;16.71;87.61
10796;BME280;5450;42.994;23.372;2023-03-25T08:27:13;95739.28;;;16.08;85.24
10796;BME280;5450;42.994;23.372;2023-03-25T08:29:41;95839.78;;;16.97;81.72
10796;BME280;5450;42.994;23.372;2023-03-25T08:32:08;95859.38;;;17.20;81.12
10796;BME280;5450;42.994;23.372;2023-03-25T08:34:35;95881.19;;;17.65;81.27
10796;BME280;5450;42.994;23.372;2023-03-25T08:37:09;95789.31;;;17.21;78.48
10796;BME280;5450;42.994;23.372;2023-03-25T08:39:36;95896.97;;;18.14;77.67
10796;BME280;5450;42.994;23.372;2023-03-25T08:42:07;95868.56;;;18.45;72.44
10796;BME280;5450;42.994;23.372;2023-03-25T08:44:34;95842.47;;;18.65;71.91
10796;BME280;5450;42.994;23.372;2023-03-25T08:47:01;95850.97;;;19.08;67.50
10796;BME280;5450;42.994;23.372;2023-03-25T08:49:28;95857.00;;;19.15;65.04
10796;BME280;5450;42.994;23.372;2023-03-25T08:51:56;95848.88;;;19.10;65.59
10796;BME280;5450;42.994;23.372;2023-03-25T08:54:24;95843.22;;;19.18;66.71
10796;BME280;5450;42.994;23.372;2023-03-25T08:56:52;95761.59;;;18.66;66.24
10796;BME280;5450;42.994;23.372;2023-03-25T08:59:21;95832.66;;;19.23;67.15
10796;BME280;5450;42.994;23.372;2023-03-25T09:01:48;95827.72;;;19.50;65.33
10796;BME280;5450;42.994;23.372;2023-03-25T09:04:15;95812.72;;;19.60;65.18
10796;BME280;5450;42.994;23.372;2023-03-25T09:06:42;95759.25;;;19.50;61.50
10796;BME280;5450;42.994;23.372;2023-03-25T09:09:10;95821.63;;;20.06;60.96
10796;BME280;5450;42.994;23.372;2023-03-25T09:11:37;95690.25;;;19.37;57.92
10796;BME280;5450;42.994;23.372;2023-03-25T09:14:04;95794.31;;;19.99;58.59
10796;BME280;5450;42.994;23.372;2023-03-25T09:16:34;95811.56;;;20.36;57.98
10796;BME280;5450;42.994;23.372;2023-03-25T09:19:01;95776.50;;;19.88;53.34
10796;BME280;5450;42.994;23.372;2023-03-25T09:21:28;95796.59;;;19.79;55.14
10796;BME280;5450;42.994;23.372;2023-03-25T09:23:55;95803.75;;;20.18;53.96
10796;BME280;5450;42.994;23.372;2023-03-25T09:26:22;95788.25;;;20.31;57.43
10796;BME280;5450;42.994;23.372;2023-03-25T09:28:50;95795.06;;;20.39;59.87
10796;BME280;5450;42.994;23.372;2023-03-25T09:31:20;95789.91;;;20.49;56.75
10796;BME280;5450;42.994;23.372;2023-03-25T09:33:48;95729.72;;;19.68;52.28
10796;BME280;5450;42.994;23.372;2023-03-25T09:36:15;95751.41;;;19.72;54.71
10796;BME280;5450;42.994;23.372;2023-03-25T09:38:43;95777.44;;;19.82;55.97
10796;BME280;5450;42.994;23.372;2023-03-25T09:41:25;95758.19;;;20.08;53.95
10796;BME280;5450;42.994;23.372;2023-03-25T09:44:01;95786.50;;;20.37;55.04
10796;BME280;5450;42.994;23.372;2023-03-25T09:46:31;95777.63;;;20.48;54.45
10796;BME280;5450;42.994;23.372;2023-03-25T09:49:00;95781.00;;;20.60;53.78
10796;BME280;5450;42.994;23.372;2023-03-25T09:51:31;95767.63;;;20.55;53.12
10796;BME280;5450;42.994;23.372;2023-03-25T09:54:11;95773.66;;;20.67;52.77
10796;BME280;5450;42.994;23.372;2023-03-25T09:56:43;95765.97;;;20.71;53.33
10796;BME280;5450;42.994;23.372;2023-03-25T10:02:29;95710.84;;;20.15;49.94
10796;BME280;5450;42.994;23.372;2023-03-25T10:05:27;95652.16;;;19.53;51.02
10796;BME280;5450;42.994;23.372;2023-03-25T10:08:07;95760.38;;;20.39;50.73
10796;BME280;5450;42.994;23.372;2023-03-25T10:10:43;95615.81;;;19.47;51.88
10796;BME280;5450;42.994;23.372;2023-03-25T10:13:18;95608.88;;;19.46;51.35
10796;BME280;5450;42.994;23.372;2023-03-25T10:15:55;95741.25;;;20.42;50.78
10796;BME280;5450;42.994;23.372;2023-03-25T10:18:35;95717.91;;;20.21;49.58
10796;BME280;5450;42.994;23.372;2023-03-25T10:21:10;95738.97;;;20.51;52.91
10796;BME280;5450;42.994;23.372;2023-03-25T10:23:46;95714.47;;;20.37;51.48
10796;BME280;5450;42.994;23.372;2023-03-25T10:26:19;95687.53;;;20.38;49.74
10796;BME280;5450;42.994;23.372;2023-03-25T10:28:53;95609.41;;;20.10;48.06
10796;BME280;5450;42.994;23.372;2023-03-25T10:31:27;95721.94;;;21.06;48.50
10796;BME280;5450;42.994;23.372;2023-03-25T10:34:01;95569.19;;;20.28;49.63
10796;BME280;5450;42.994;23.372;2023-03-25T10:36:44;95718.09;;;21.41;50.50
10796;BME280;5450;42.994;23.372;2023-03-25T10:39:20;95664.94;;;21.18;45.83
10796;BME280;5450;42.994;23.372;2023-03-25T10:41:50;95704.34;;;21.75;47.52
10796;BME280;5450;42.994;23.372;2023-03-25T10:44:21;95718.56;;;21.81;46.58
10796;BME280;5450;42.994;23.372;2023-03-25T10:46:55;95640.53;;;21.36;45.07
10796;BME280;5450;42.994;23.372;2023-03-25T10:49:25;95618.66;;;21.39;44.05
10796;BME280;5450;42.994;23.372;2023-03-25T10:51:54;95675.47;;;21.77;45.43
10796;BME280;5450;42.994;23.372;2023-03-25T10:54:26;95680.34;;;22.07;45.61
10796;BME280;5450;42.994;23.372;2023-03-25T10:56:58;95670.53;;;22.18;45.21
10796;BME280;5450;42.994;23.372;2023-03-25T10:59:30;95584.75;;;21.71;47.15
10796;BME280;5450;42.994;23.372;2023-03-25T11:02:10;95628.38;;;21.98;44.08
10796;BME280;5450;42.994;23.372;2023-03-25T11:04:41;95662.25;;;22.19;45.59
10796;BME280;5450;42.994;23.372;2023-03-25T11:07:18;95651.97;;;22.06;45.80
10796;BME280;5450;42.994;23.372;2023-03-25T11:09:49;95624.16;;;22.07;44.89
10796;BME280;5450;42.994;23.372;2023-03-25T11:12:31;95584.16;;;21.91;44.01
10796;BME280;5450;42.994;23.372;2023-03-25T11:14:58;95617.34;;;21.68;43.27
10796;BME280;5450;42.994;23.372;2023-03-25T11:17:27;95655.38;;;21.97;45.71
10796;BME280;5450;42.994;23.372;2023-03-25T11:23:33;95658.13;;;21.32;48.09
10796;BME280;5450;42.994;23.372;2023-03-25T11:26:11;95658.09;;;21.27;47.52
10796;BME280;5450;42.994;23.372;2023-03-25T11:29:04;95636.66;;;21.22;54.10
10796;BME280;5450;42.994;23.372;2023-03-25T11:31:41;95652.34;;;21.18;48.73
10796;BME280;5450;42.994;23.372;2023-03-25T11:39:36;95675.72;;;21.28;52.29
10796;BME280;5450;42.994;23.372;2023-03-25T11:48:28;95499.41;;;20.19;49.59
10796;BME280;5450;42.994;23.372;2023-03-25T11:57:36;95573.69;;;20.44;54.12
10796;BME280;5450;42.994;23.372;2023-03-25T12:00:44;95641.63;;;20.96;49.75
10796;BME280;5450;42.994;23.372;2023-03-25T12:03:18;95579.06;;;20.49;47.45
10796;BME280;5450;42.994;23.372;2023-03-25T12:05:57;95596.75;;;20.72;47.20
10796;BME280;5450;42.994;23.372;2023-03-25T12:08:28;95537.63;;;20.42;48.91
10796;BME280;5450;42.994;23.372;2023-03-25T12:11:00;95617.75;;;20.85;46.64
10796;BME280;5450;42.994;23.372;2023-03-25T12:13:39;95537.00;;;20.34;48.35
10796;BME280;5450;42.994;23.372;2023-03-25T12:16:19;95551.97;;;20.57;46.07
10796;BME280;5450;42.994;23.372;2023-03-25T12:18:57;95618.13;;;20.93;45.79
10796;BME280;5450;42.994;23.372;2023-03-25T12:21:38;95617.56;;;20.91;46.59
10796;BME280;5450;42.994;23.372;2023-03-25T12:24:20;95605.75;;;20.87;46.25
10796;BME280;5450;42.994;23.372;2023-03-25T12:26:59;95577.31;;;20.76;47.27
10796;BME280;5450;42.994;23.372;2023-03-25T12:29:37;95509.84;;;20.21;45.52
10796;BME280;5450;42.994;23.372;2023-03-25T12:32:18;95517.84;;;20.37;44.81
10796;BME280;5450;42.994;23.372;2023-03-25T12:34:56;95506.91;;;20.39;45.93
10796;BME280;5450;42.994;23.372;2023-03-25T12:37:32;95598.31;;;20.89;45.54
10796;BME280;5450;42.994;23.372;2023-03-25T12:40:16;95554.22;;;20.65;45.22
10796;BME280;5450;42.994;23.372;2023-03-25T12:42:54;95531.91;;;20.55;46.77
10796;BME280;5450;42.994;23.372;2023-03-25T12:45:35;95571.63;;;20.73;44.72
10796;BME280;5450;42.994;23.372;2023-03-25T12:48:13;95595.19;;;20.97;45.54
10796;BME280;5450;42.994;23.372;2023-03-25T12:50:51;95557.31;;;20.79;44.36
10796;BME280;5450;42.994;23.372;2023-03-25T12:53:41;95508.00;;;20.43;45.20
10796;BME280;5450;42.994;23.372;2023-03-25T12:56:28;95561.78;;;20.73;45.48
10796;BME280;5450;42.994;23.372;2023-03-25T12:59:08;95577.94;;;20.83;44.94
10796;BME280;5450;42.994;23.372;2023-03-25T13:01:46;95547.94;;;20.55;45.51
10796;BME280;5450;42.994;23.372;2023-03-25T13:04:38;95590.31;;;20.94;44.44
10796;BME280;5450;42.994;23.372;2023-03-25T13:07:11;95580.66;;;20.88;44.12
10796;BME280;5450;42.994;23.372;2023-03-25T13:09:49;95584.88;;;20.84;44.85
10796;BME280;5450;42.994;23.372;2023-03-25T13:12:26;95489.63;;;20.25;46.88
10796;BME280;5450;42.994;23.372;2023-03-25T13:14:59;95597.50;;;20.89;43.86
10796;BME280;5450;42.994;23.372;2023-03-25T13:17:34;95565.53;;;20.72;45.37
10796;BME280;5450;42.994;23.372;2023-03-25T13:20:06;95442.81;;;19.96;48.96
10796;BME280;5450;42.994;23.372;2023-03-25T13:22:38;95586.31;;;20.92;46.22
10796;BME280;5450;42.994;23.372;2023-03-25T13:25:17;95550.16;;;20.63;47.35
10796;BME280;5450;42.994;23.372;2023-03-25T13:27:46;95532.03;;;20.43;48.39
10796;BME280;5450;42.994;23.372;2023-03-25T13:30:28;95593.34;;;20.60;48.54
10796;BME280;5450;42.994;23.372;2023-03-25T13:33:00;95512.38;;;19.78;46.70
10796;BME280;5450;42.994;23.372;2023-03-25T13:35:40;95502.97;;;19.70;45.00
10796;BME280;5450;42.994;23.372;2023-03-25T13:38:13;95594.16;;;20.22;44.53
10796;BME280;5450;42.994;23.372;2023-03-25T13:40:47;95502.25;;;19.30;44.36
10796;BME280;5450;42.994;23.372;2023-03-25T13:43:24;95559.41;;;19.67;44.50
10796;BME280;5450;42.994;23.372;2023-03-25T13:45:59;95582.88;;;19.53;46.22
10796;BME280;5450;42.994;23.372;2023-03-25T13:48:33;95653.34;;;19.74;47.82
10796;BME280;5450;42.994;23.372;2023-03-25T13:51:06;95531.00;;;18.71;47.69
10796;BME280;5450;42.994;23.372;2023-03-25T13:53:36;95639.22;;;19.45;47.18
10796;BME280;5450;42.994;23.372;2023-03-25T13:56:31;95563.63;;;18.67;48.47